createdAt,value
2022-10-18T00:02:10.588Z,5.07
2022-10-18T00:04:37.276Z,4.63
2022-10-18T00:07:04.180Z,5.03
2022-10-18T00:09:30.844Z,4.20
2022-10-18T00:11:57.729Z,4.57
2022-10-18T00:14:24.185Z,4.63
2022-10-18T00:16:50.585Z,5.10
2022-10-18T00:19:16.993Z,4.75
2022-10-18T00:24:14.860Z,3.90
2022-10-18T00:26:41.276Z,5.13
2022-10-18T00:29:07.902Z,4.30
2022-10-18T00:31:37.081Z,3.80
2022-10-18T00:34:07.122Z,4.20
2022-10-18T00:36:34.465Z,3.88
2022-10-18T00:39:02.306Z,3.92
2022-10-18T00:41:31.598Z,5.47
2022-10-18T00:44:26.842Z,4.68
2022-10-18T00:46:58.076Z,5.43
2022-10-18T00:49:31.705Z,3.63
2022-10-18T00:52:02.351Z,4.35
2022-10-18T00:54:31.027Z,4.85
2022-10-18T00:56:58.153Z,4.45
2022-10-18T00:59:25.794Z,4.03
2022-10-18T01:01:52.549Z,4.50
2022-10-18T01:04:20.783Z,4.07
2022-10-18T01:09:38.721Z,4.22
2022-10-18T01:12:27.482Z,4.00
2022-10-18T01:15:04.421Z,3.45
2022-10-18T01:17:50.532Z,3.97
2022-10-18T01:20:58.592Z,3.63
2022-10-18T01:23:27.881Z,3.72
2022-10-18T01:26:12.142Z,4.03
2022-10-18T01:28:54.424Z,3.30
2022-10-18T01:31:25.755Z,3.60
2022-10-18T01:33:58.290Z,3.80
2022-10-18T01:36:27.577Z,4.15
2022-10-18T01:38:57.915Z,3.65
2022-10-18T01:41:26.508Z,3.92
2022-10-18T01:43:57.829Z,3.90
2022-10-18T01:46:25.693Z,3.65
2022-10-18T01:48:54.065Z,3.50
2022-10-18T01:51:26.221Z,4.32
2022-10-18T01:53:52.689Z,3.53
2022-10-18T01:56:23.516Z,3.70
2022-10-18T01:58:58.989Z,3.60
2022-10-18T02:01:41.008Z,3.67
2022-10-18T02:04:22.337Z,3.30
2022-10-18T02:06:57.428Z,3.83
2022-10-18T02:10:07.886Z,3.88
2022-10-18T02:12:36.347Z,4.78
2022-10-18T02:15:07.237Z,3.40
2022-10-18T02:17:33.915Z,5.10
2022-10-18T02:20:02.484Z,4.15
2022-10-18T02:22:33.362Z,3.25
2022-10-18T02:25:04.504Z,4.22
2022-10-18T02:27:30.993Z,3.40
2022-10-18T02:29:58.352Z,3.85
2022-10-18T02:32:34.853Z,3.53
2022-10-18T02:35:06.376Z,3.55
2022-10-18T02:40:03.829Z,3.20
2022-10-18T02:42:40.137Z,3.30
2022-10-18T02:45:07.059Z,3.15
2022-10-18T02:47:33.724Z,3.03
2022-10-18T02:50:00.389Z,2.92
2022-10-18T02:52:26.884Z,3.10
2022-10-18T02:54:53.352Z,3.35
2022-10-18T02:57:19.736Z,3.17
2022-10-18T02:59:46.136Z,3.00
2022-10-18T03:02:12.665Z,3.17
2022-10-18T03:04:39.146Z,3.90
2022-10-18T03:07:05.545Z,2.92
2022-10-18T03:09:32.104Z,2.75
2022-10-18T03:11:58.784Z,3.10
2022-10-18T03:14:25.219Z,3.20
2022-10-18T03:16:51.628Z,3.50
2022-10-18T03:19:18.035Z,3.78
2022-10-18T03:21:44.741Z,3.20
2022-10-18T03:24:11.183Z,3.28
2022-10-18T03:26:37.568Z,3.13
2022-10-18T03:29:04.091Z,3.08
2022-10-18T03:34:02.025Z,4.15
2022-10-18T03:36:28.485Z,3.33
2022-10-18T03:38:54.894Z,3.67
2022-10-18T03:41:21.436Z,3.58
2022-10-18T03:43:48.302Z,4.32
2022-10-18T03:46:14.774Z,3.03
2022-10-18T03:48:41.220Z,3.30
2022-10-18T03:51:07.696Z,3.58
2022-10-18T03:53:34.076Z,3.75
2022-10-18T03:56:00.480Z,3.45
2022-10-18T03:58:27.056Z,4.13
2022-10-18T04:00:54.668Z,3.17
2022-10-18T04:03:22.682Z,3.20
2022-10-18T04:05:49.980Z,2.85
2022-10-18T04:08:17.027Z,3.50
2022-10-18T04:10:43.974Z,3.83
2022-10-18T04:13:10.726Z,2.95
2022-10-18T04:15:37.743Z,3.08
2022-10-18T04:18:04.261Z,3.42
2022-10-18T04:20:30.661Z,3.20
2022-10-18T04:22:57.822Z,2.80
2022-10-18T04:25:25.025Z,2.47
2022-10-18T04:27:51.813Z,3.08
2022-10-18T04:30:18.270Z,2.72
2022-10-18T04:32:44.685Z,3.25
2022-10-18T04:35:11.481Z,3.20
2022-10-18T04:37:38.084Z,3.25
2022-10-18T04:40:05.106Z,3.47
2022-10-18T04:42:31.621Z,3.25
2022-10-18T04:44:58.083Z,3.70
2022-10-18T04:47:24.580Z,3.42
2022-10-18T04:49:50.960Z,3.22
2022-10-18T04:52:17.375Z,3.63
2022-10-18T04:54:43.805Z,3.75
2022-10-18T04:57:10.232Z,3.28
2022-10-18T04:59:37.332Z,2.97
2022-10-18T05:04:35.689Z,3.35
2022-10-18T05:07:02.856Z,3.40
2022-10-18T05:09:29.239Z,3.30
2022-10-18T05:11:55.672Z,3.53
2022-10-18T05:14:22.138Z,3.80
2022-10-18T05:16:48.537Z,3.40
2022-10-18T05:19:15.021Z,3.88
2022-10-18T05:21:41.507Z,3.58
2022-10-18T05:24:09.932Z,3.47
2022-10-18T05:26:36.310Z,3.65
2022-10-18T05:29:03.702Z,3.72
2022-10-18T05:31:30.269Z,3.65
2022-10-18T05:33:56.680Z,3.78
2022-10-18T05:36:23.256Z,4.25
2022-10-18T05:38:50.083Z,3.30
2022-10-18T05:41:16.502Z,3.80
2022-10-18T05:43:42.987Z,4.43
2022-10-18T05:46:14.540Z,3.90
2022-10-18T05:48:43.295Z,4.07
2022-10-18T05:51:09.824Z,3.70
2022-10-18T05:53:37.413Z,3.17
2022-10-18T05:56:05.106Z,3.80
2022-10-18T05:58:31.783Z,4.00
2022-10-18T06:01:00.619Z,3.33
2022-10-18T06:03:27.887Z,3.60
2022-10-18T06:06:00.257Z,4.60
2022-10-18T06:08:26.924Z,3.92
2022-10-18T06:10:53.412Z,4.80
2022-10-18T06:13:19.849Z,3.30
2022-10-18T06:15:46.326Z,3.40
2022-10-18T06:18:12.872Z,3.70
2022-10-18T06:20:39.248Z,3.45
2022-10-18T06:23:05.713Z,3.20
2022-10-18T06:25:32.212Z,2.90
2022-10-18T06:27:58.596Z,3.60
2022-10-18T06:30:25.122Z,3.03
2022-10-18T06:32:51.587Z,3.10
2022-10-18T06:35:18.206Z,3.60
2022-10-18T06:37:44.616Z,3.30
2022-10-18T06:40:11.378Z,2.80
2022-10-18T06:42:37.865Z,2.90
2022-10-18T06:45:05.659Z,3.13
2022-10-18T06:47:32.100Z,2.83
2022-10-18T06:49:59.578Z,3.00
2022-10-18T06:52:26.260Z,2.92
2022-10-18T06:54:52.836Z,4.35
2022-10-18T06:57:20.729Z,4.03
2022-10-18T06:59:47.298Z,3.40
2022-10-18T07:02:19.917Z,2.83
2022-10-18T07:04:46.602Z,3.25
2022-10-18T07:07:13.125Z,3.42
2022-10-18T07:09:40.305Z,3.53
2022-10-18T07:12:06.908Z,3.50
2022-10-18T07:14:33.310Z,3.55
2022-10-18T07:17:00.264Z,3.50
2022-10-18T07:19:26.795Z,3.40
2022-10-18T07:21:53.253Z,3.38
2022-10-18T07:24:19.916Z,3.30
2022-10-18T07:26:46.407Z,3.30
2022-10-18T07:29:13.219Z,3.13
2022-10-18T07:31:40.856Z,2.83
2022-10-18T07:34:10.178Z,2.78
2022-10-18T07:36:36.959Z,3.20
2022-10-18T07:39:04.664Z,2.75
2022-10-18T07:41:33.547Z,2.92
2022-10-18T07:44:01.160Z,2.47
2022-10-18T07:46:28.143Z,2.95
2022-10-18T07:48:54.736Z,2.45
2022-10-18T07:51:21.348Z,2.75
2022-10-18T07:53:48.127Z,2.70
2022-10-18T07:56:17.180Z,2.45
2022-10-18T07:58:52.635Z,2.72
2022-10-18T08:01:21.359Z,2.92
2022-10-18T08:03:48.250Z,2.90
2022-10-18T08:06:16.418Z,3.42
2022-10-18T08:08:43.024Z,2.53
2022-10-18T08:11:15.646Z,2.90
2022-10-18T08:13:43.203Z,2.65
2022-10-18T08:16:12.043Z,3.05
2022-10-18T08:18:39.112Z,2.70
2022-10-18T08:21:08.260Z,3.17
2022-10-18T08:23:35.494Z,3.65
2022-10-18T08:26:06.569Z,3.47
2022-10-18T08:28:36.497Z,2.83
2022-10-18T08:31:05.401Z,2.90
2022-10-18T08:33:32.369Z,3.97
2022-10-18T08:36:00.989Z,2.63
2022-10-18T08:38:31.375Z,2.72
2022-10-18T08:41:31.309Z,2.70
2022-10-18T08:44:32.172Z,2.45
2022-10-18T08:47:03.613Z,2.53
2022-10-18T08:49:37.169Z,2.60
2022-10-18T08:52:09.761Z,2.33
2022-10-18T08:54:52.073Z,2.65
2022-10-18T08:57:19.746Z,2.30
2022-10-18T08:59:46.320Z,2.75
2022-10-18T09:02:51.894Z,3.38
2022-10-18T09:05:40.127Z,3.28
2022-10-18T09:08:28.527Z,2.50
2022-10-18T09:11:06.986Z,2.95
2022-10-18T09:14:11.556Z,4.07
2022-10-18T09:16:54.335Z,3.00
2022-10-18T09:19:28.894Z,2.97
2022-10-18T09:22:00.871Z,2.78
2022-10-18T09:24:45.856Z,2.20
2022-10-18T09:27:16.997Z,2.80
2022-10-18T09:30:03.292Z,2.50
2022-10-18T09:32:53.617Z,2.88
2022-10-18T09:35:24.506Z,2.60
2022-10-18T09:37:55.639Z,2.60
2022-10-18T09:40:26.994Z,2.50
2022-10-18T09:45:32.564Z,2.53
2022-10-18T09:51:04.970Z,2.40
2022-10-18T09:53:46.812Z,2.75
2022-10-18T09:56:34.675Z,2.30
2022-10-18T09:59:04.296Z,2.22
2022-10-18T10:01:32.169Z,2.97
2022-10-18T10:03:58.825Z,2.78
2022-10-18T10:06:30.853Z,3.25
2022-10-18T10:09:02.301Z,2.33
2022-10-18T10:14:27.224Z,2.58
2022-10-18T10:17:02.085Z,2.38
2022-10-18T10:19:34.712Z,2.55
2022-10-18T10:22:10.543Z,2.83
2022-10-18T10:24:36.959Z,2.67
2022-10-18T10:27:06.942Z,2.42
2022-10-18T10:29:45.407Z,2.50
2022-10-18T10:32:17.556Z,2.35
2022-10-18T10:34:45.003Z,2.50
2022-10-18T10:37:24.905Z,2.80
2022-10-18T10:40:17.794Z,2.30
2022-10-18T10:43:32.957Z,2.22
2022-10-18T10:46:07.275Z,2.42
2022-10-18T10:48:41.486Z,2.15
2022-10-18T10:51:10.428Z,2.20
2022-10-18T10:53:43.054Z,2.15
2022-10-18T10:56:17.565Z,1.85
2022-10-18T10:58:44.173Z,2.20
2022-10-18T11:01:29.760Z,1.85
2022-10-18T11:04:02.384Z,2.00
2022-10-18T11:06:41.128Z,2.15
2022-10-18T11:09:29.886Z,1.98
2022-10-18T11:12:03.477Z,2.42
2022-10-18T11:14:36.687Z,2.40
2022-10-18T11:17:17.686Z,2.28
2022-10-18T11:19:59.228Z,1.80
2022-10-18T11:22:27.841Z,1.90
2022-10-18T11:24:54.421Z,1.60
2022-10-18T11:27:25.733Z,1.80
2022-10-18T11:33:03.185Z,1.92
2022-10-18T11:35:41.778Z,1.88
2022-10-18T11:38:11.295Z,1.60
2022-10-18T11:40:53.179Z,1.75
2022-10-18T11:44:00.551Z,2.00
2022-10-18T11:46:27.963Z,2.05
2022-10-18T11:49:15.856Z,1.90
2022-10-18T11:52:08.941Z,1.83
2022-10-18T11:54:41.985Z,1.80
2022-10-18T11:57:30.659Z,2.30
2022-10-18T12:00:24.170Z,2.13
2022-10-18T12:03:22.957Z,1.80
2022-10-18T12:05:52.543Z,2.03
2022-10-18T12:08:30.994Z,1.80
2022-10-18T12:11:05.548Z,2.22
2022-10-18T12:13:48.813Z,1.95
2022-10-18T12:16:16.624Z,2.60
2022-10-18T12:21:29.193Z,2.72
2022-10-18T12:23:58.453Z,2.97
2022-10-18T12:26:28.394Z,2.50
2022-10-18T12:29:00.211Z,2.80
2022-10-18T12:31:38.640Z,2.60
2022-10-18T12:34:23.553Z,2.50
2022-10-18T12:36:55.904Z,2.70
2022-10-18T12:39:43.465Z,2.58
2022-10-18T12:42:29.593Z,2.83
2022-10-18T12:45:26.743Z,1.98
2022-10-18T12:47:54.949Z,2.10
2022-10-18T12:50:34.791Z,1.40
2022-10-18T12:53:05.920Z,1.85
2022-10-18T12:55:40.462Z,1.50
2022-10-18T12:58:15.888Z,1.60
2022-10-18T13:00:42.315Z,1.30
2022-10-18T13:03:18.045Z,1.60
2022-10-18T13:05:56.099Z,1.50
2022-10-18T13:08:31.677Z,1.92
2022-10-18T13:11:10.295Z,1.42
2022-10-18T13:16:40.999Z,1.60
2022-10-18T13:19:40.354Z,1.60
2022-10-18T13:22:12.617Z,1.70
2022-10-18T13:24:46.961Z,1.30
2022-10-18T13:27:36.868Z,1.60
2022-10-18T13:30:22.355Z,1.30
2022-10-18T13:33:31.261Z,1.50
2022-10-18T13:36:00.593Z,1.63
2022-10-18T13:38:30.028Z,1.67
2022-10-18T13:41:05.725Z,2.05
2022-10-18T13:43:53.956Z,1.85
2022-10-18T13:46:42.460Z,1.58
2022-10-18T13:49:59.942Z,1.50
2022-10-18T13:52:32.329Z,1.70
2022-10-18T13:55:04.834Z,1.60
2022-10-18T13:58:25.217Z,1.60
2022-10-18T14:01:30.086Z,1.85
2022-10-18T14:04:23.006Z,1.83
2022-10-18T14:06:51.861Z,1.48
2022-10-18T14:09:40.293Z,1.92
2022-10-18T14:12:33.791Z,2.08
2022-10-18T14:15:07.696Z,1.80
2022-10-18T14:17:47.868Z,2.10
2022-10-18T14:20:55.277Z,1.90
2022-10-18T14:23:41.997Z,1.98
2022-10-18T14:26:18.381Z,1.98
2022-10-18T14:28:59.440Z,2.00
2022-10-18T14:31:27.069Z,1.80
2022-10-18T14:33:58.010Z,1.95
2022-10-18T14:36:51.707Z,1.73
2022-10-18T14:39:26.546Z,2.20
2022-10-18T14:41:54.902Z,2.55
2022-10-18T14:44:27.313Z,2.00
2022-10-18T14:47:03.946Z,1.63
2022-10-18T14:49:30.868Z,2.05
2022-10-18T14:52:00.460Z,1.88
2022-10-18T14:54:33.763Z,1.83
2022-10-18T14:57:01.881Z,1.95
2022-10-18T14:59:31.380Z,1.77
2022-10-18T15:02:13.495Z,2.08
2022-10-18T15:04:43.235Z,2.28
2022-10-18T15:07:15.717Z,2.22
2022-10-18T15:09:43.256Z,2.30
2022-10-18T15:12:14.866Z,2.03
2022-10-18T15:14:42.583Z,2.40
2022-10-18T15:17:16.905Z,2.22
2022-10-18T15:19:55.234Z,2.20
2022-10-18T15:22:32.619Z,2.30
2022-10-18T15:25:05.567Z,2.25
2022-10-18T15:27:35.752Z,2.50
2022-10-18T15:30:09.153Z,2.63
2022-10-18T15:32:35.927Z,2.10
2022-10-18T15:35:20.972Z,2.58
2022-10-18T15:37:50.420Z,2.85
2022-10-18T15:40:23.069Z,2.58
2022-10-18T15:42:53.295Z,2.60
2022-10-18T15:45:25.788Z,2.20
2022-10-18T15:48:01.505Z,3.00
2022-10-18T15:50:43.760Z,2.75
2022-10-18T15:53:25.544Z,2.67
2022-10-18T15:56:00.811Z,3.30
2022-10-18T15:58:39.084Z,2.40
2022-10-18T16:01:15.092Z,2.65
2022-10-18T16:03:41.639Z,2.40
2022-10-18T16:06:12.272Z,2.90
2022-10-18T16:08:44.112Z,2.95
2022-10-18T16:11:29.637Z,3.47
2022-10-18T16:13:58.024Z,3.50
2022-10-18T16:16:28.729Z,3.08
2022-10-18T16:18:55.438Z,3.47
2022-10-18T16:21:28.377Z,2.80
2022-10-18T16:23:54.904Z,3.30
2022-10-18T16:26:22.957Z,3.03
2022-10-18T16:28:50.122Z,3.45
2022-10-18T16:31:19.627Z,3.55
2022-10-18T16:33:46.302Z,3.25
2022-10-18T16:36:33.131Z,3.67
2022-10-18T16:39:04.735Z,3.55
2022-10-18T16:41:31.133Z,3.78
2022-10-18T16:43:57.515Z,3.45
2022-10-18T16:46:31.615Z,4.25
2022-10-18T16:48:58.552Z,3.80
2022-10-18T16:51:25.235Z,3.92
2022-10-18T16:53:53.335Z,4.30
2022-10-18T16:56:22.564Z,4.03
2022-10-18T16:58:50.121Z,4.80
2022-10-18T17:01:18.935Z,5.35
2022-10-18T17:03:46.004Z,4.45
2022-10-18T17:06:43.815Z,4.70
2022-10-18T17:09:14.162Z,5.03
2022-10-18T17:11:41.192Z,4.43
2022-10-18T17:14:07.934Z,4.85
2022-10-18T17:16:36.743Z,5.07
2022-10-18T17:19:07.177Z,6.03
2022-10-18T17:21:33.677Z,5.30
2022-10-18T17:24:03.128Z,5.82
2022-10-18T17:26:30.527Z,5.65
2022-10-18T17:29:03.146Z,4.93
2022-10-18T17:31:31.204Z,6.82
2022-10-18T17:33:58.715Z,5.50
2022-10-18T17:36:25.746Z,5.60
2022-10-18T17:38:55.801Z,5.95
2022-10-18T17:41:22.355Z,6.22
2022-10-18T17:43:49.364Z,6.13
2022-10-18T17:46:17.702Z,5.65
2022-10-18T17:48:44.350Z,5.65
2022-10-18T17:51:13.078Z,5.70
2022-10-18T17:53:39.591Z,5.28
2022-10-18T17:56:07.285Z,5.32
2022-10-18T17:58:34.353Z,6.03
2022-10-18T18:01:21.432Z,6.18
2022-10-18T18:03:47.940Z,6.47
2022-10-18T18:06:20.234Z,5.90
2022-10-18T18:08:47.514Z,6.90
2022-10-18T18:11:14.392Z,8.10
2022-10-18T18:13:40.989Z,7.00
2022-10-18T18:16:20.766Z,5.93
2022-10-18T18:18:49.516Z,5.88
2022-10-18T18:21:16.435Z,6.13
2022-10-18T18:23:43.315Z,7.00
2022-10-18T18:26:09.723Z,6.25
2022-10-18T18:28:36.617Z,6.13
2022-10-18T18:31:11.729Z,7.10
2022-10-18T18:33:38.432Z,6.20
2022-10-18T18:36:06.656Z,6.60
2022-10-18T18:38:34.402Z,6.55
2022-10-18T18:41:15.464Z,6.68
2022-10-18T18:43:44.845Z,6.57
2022-10-18T18:46:13.057Z,7.07
2022-10-18T18:48:40.746Z,7.07
2022-10-18T18:51:11.513Z,7.82
2022-10-18T18:53:39.938Z,7.32
2022-10-18T18:56:09.039Z,8.05
2022-10-18T18:58:37.671Z,6.80
2022-10-18T19:01:10.995Z,7.50
2022-10-18T19:03:38.602Z,7.45
2022-10-18T19:06:07.399Z,9.55
2022-10-18T19:08:39.017Z,8.13
2022-10-18T19:13:35.909Z,7.30
2022-10-18T19:16:18.005Z,8.18
2022-10-18T19:18:50.438Z,8.30
2022-10-18T19:21:16.857Z,7.68
2022-10-18T19:23:43.270Z,7.30
2022-10-18T19:26:11.525Z,7.57
2022-10-18T19:28:38.494Z,6.88
2022-10-18T19:31:06.822Z,7.47
2022-10-18T19:33:47.827Z,8.85
2022-10-18T19:36:19.809Z,7.43
2022-10-18T19:38:46.250Z,8.05
2022-10-18T19:41:12.720Z,7.32
2022-10-18T19:43:39.146Z,8.20
2022-10-18T19:46:05.811Z,6.88
2022-10-18T19:48:32.231Z,7.80
2022-10-18T19:51:04.332Z,7.32
2022-10-18T19:53:31.173Z,7.03
2022-10-18T19:55:59.550Z,6.68
2022-10-18T19:58:26.264Z,7.07
2022-10-18T20:00:54.041Z,7.93
2022-10-18T20:03:21.328Z,7.97
2022-10-18T20:05:55.562Z,9.30
2022-10-18T20:08:23.020Z,8.35
2022-10-18T20:10:49.530Z,7.30
2022-10-18T20:13:15.985Z,7.75
2022-10-18T20:15:42.429Z,8.13
2022-10-18T20:18:08.958Z,7.32
2022-10-18T20:20:36.765Z,9.65
2022-10-18T20:23:03.809Z,9.32
2022-10-18T20:25:30.245Z,9.00
2022-10-18T20:27:56.641Z,8.60
2022-10-18T20:30:23.030Z,7.70
2022-10-18T20:32:52.032Z,8.82
2022-10-18T20:35:19.262Z,8.48
2022-10-18T20:37:46.142Z,8.00
2022-10-18T20:40:14.133Z,7.25
2022-10-18T20:42:40.972Z,7.15
2022-10-18T20:45:08.744Z,5.97
2022-10-18T20:47:35.507Z,6.30
2022-10-18T20:50:03.335Z,7.05
2022-10-18T20:52:29.722Z,6.80
2022-10-18T20:54:56.145Z,6.72
2022-10-18T20:57:22.553Z,6.57
2022-10-18T20:59:48.991Z,7.05
2022-10-18T21:02:15.527Z,7.30
2022-10-18T21:04:42.455Z,7.72
2022-10-18T21:07:08.936Z,6.95
2022-10-18T21:09:35.349Z,7.50
2022-10-18T21:12:01.853Z,7.47
2022-10-18T21:14:28.479Z,7.97
2022-10-18T21:16:54.908Z,8.55
2022-10-18T21:19:24.180Z,7.30
2022-10-18T21:21:54.270Z,8.13
2022-10-18T21:24:22.477Z,8.65
2022-10-18T21:26:49.058Z,8.52
2022-10-18T21:29:20.753Z,8.77
2022-10-18T21:31:48.544Z,8.45
2022-10-18T21:34:17.209Z,8.32
2022-10-18T21:36:46.973Z,8.05
2022-10-18T21:39:16.241Z,8.00
2022-10-18T21:41:43.682Z,7.57
2022-10-18T21:44:11.332Z,7.22
2022-10-18T21:46:39.453Z,7.45
2022-10-18T21:49:07.150Z,8.02
2022-10-18T21:51:33.585Z,7.38
2022-10-18T21:54:00.086Z,6.32
2022-10-18T21:56:32.553Z,6.78
2022-10-18T21:59:00.018Z,6.72
2022-10-18T22:01:29.812Z,6.97
2022-10-18T22:03:57.053Z,6.65
2022-10-18T22:06:24.757Z,6.90
2022-10-18T22:08:54.469Z,6.13
2022-10-18T22:11:25.373Z,6.13
2022-10-18T22:13:52.393Z,5.70
2022-10-18T22:16:19.009Z,6.60
2022-10-18T22:18:46.703Z,7.18
2022-10-18T22:21:15.416Z,6.43
2022-10-18T22:23:47.449Z,5.95
2022-10-18T22:26:17.945Z,7.38
2022-10-18T22:28:45.235Z,6.30
2022-10-18T22:31:17.317Z,6.65
2022-10-18T22:33:43.990Z,6.93
2022-10-18T22:36:10.713Z,7.38
2022-10-18T22:38:37.777Z,6.03
2022-10-18T22:41:05.868Z,6.95
2022-10-18T22:43:32.371Z,6.88
2022-10-18T22:46:03.913Z,6.82
2022-10-18T22:48:30.765Z,6.13
2022-10-18T22:50:57.358Z,7.18
2022-10-18T22:53:23.757Z,6.63
2022-10-18T22:55:50.960Z,6.30
2022-10-18T22:58:18.564Z,6.35
2022-10-18T23:00:45.178Z,6.70
2022-10-18T23:03:12.074Z,5.78
2022-10-18T23:05:40.231Z,6.65
2022-10-18T23:08:11.320Z,6.25
2022-10-18T23:10:39.172Z,5.97
2022-10-18T23:13:06.208Z,6.88
2022-10-18T23:15:33.651Z,6.65
2022-10-18T23:18:00.321Z,7.20
2022-10-18T23:20:27.381Z,7.10
2022-10-18T23:22:54.093Z,5.90
2022-10-18T23:25:20.488Z,6.55
2022-10-18T23:27:46.874Z,6.40
2022-10-18T23:30:13.320Z,6.68
2022-10-18T23:32:39.768Z,6.55
2022-10-18T23:35:06.805Z,6.50
2022-10-18T23:37:33.545Z,6.53
2022-10-18T23:40:00.270Z,6.07
2022-10-18T23:42:26.700Z,6.38
2022-10-18T23:44:53.094Z,6.70
2022-10-18T23:47:19.550Z,7.60
2022-10-18T23:49:45.999Z,7.78
2022-10-18T23:52:12.534Z,7.00
2022-10-18T23:54:38.979Z,7.03
2022-10-18T23:57:05.581Z,6.90
2022-10-18T23:59:32.018Z,6.72
